createdAt,value
2023-09-08T00:01:47.925Z,21.83
2023-09-08T00:04:16.318Z,21.83
2023-09-08T00:06:47.197Z,21.78
2023-09-08T00:09:15.648Z,21.68
2023-09-08T00:11:44.054Z,21.51
2023-09-08T00:14:13.805Z,21.50
2023-09-08T00:16:43.949Z,21.50
2023-09-08T00:19:13.024Z,21.51
2023-09-08T00:21:41.248Z,21.46
2023-09-08T00:24:09.742Z,21.40
2023-09-08T00:26:38.054Z,21.39
2023-09-08T00:29:06.412Z,21.39
2023-09-08T00:31:36.022Z,21.31
2023-09-08T00:34:04.697Z,21.33
2023-09-08T00:36:34.498Z,21.30
2023-09-08T00:39:03.801Z,21.33
2023-09-08T00:41:34.601Z,21.17
2023-09-08T00:44:03.204Z,21.18
2023-09-08T00:46:31.912Z,21.13
2023-09-08T00:49:02.432Z,21.15
2023-09-08T00:51:30.873Z,21.06
2023-09-08T00:53:59.265Z,21.13
2023-09-08T00:56:28.089Z,21.23
2023-09-08T00:58:58.980Z,21.15
2023-09-08T01:01:30.219Z,21.07
2023-09-08T01:03:58.605Z,21.08
2023-09-08T01:06:31.647Z,21.06
2023-09-08T01:09:00.340Z,21.01
2023-09-08T01:11:28.816Z,21.04
2023-09-08T01:13:57.092Z,21.01
2023-09-08T01:16:25.285Z,21.04
2023-09-08T01:18:55.141Z,21.04
2023-09-08T01:21:52.745Z,20.98
2023-09-08T01:24:41.960Z,20.99
2023-09-08T01:27:16.242Z,21.08
2023-09-08T01:29:46.577Z,21.04
2023-09-08T01:32:14.940Z,21.04
2023-09-08T01:34:48.107Z,20.99
2023-09-08T01:37:16.399Z,20.93
2023-09-08T01:39:44.588Z,20.99
2023-09-08T01:42:16.038Z,21.01
2023-09-08T01:44:47.118Z,21.02
2023-09-08T01:47:16.214Z,20.96
2023-09-08T01:49:44.517Z,20.96
2023-09-08T01:52:14.453Z,21.01
2023-09-08T01:54:42.892Z,20.99
2023-09-08T01:57:15.169Z,20.92
2023-09-08T01:59:43.415Z,20.85
2023-09-08T02:02:13.899Z,20.74
2023-09-08T02:04:42.525Z,20.72
2023-09-08T02:07:10.746Z,20.79
2023-09-08T02:09:40.136Z,20.80
2023-09-08T02:12:09.885Z,20.70
2023-09-08T02:14:42.210Z,20.60
2023-09-08T02:17:11.018Z,20.56
2023-09-08T02:19:39.208Z,20.49
2023-09-08T02:22:07.543Z,20.48
2023-09-08T02:24:35.802Z,20.47
2023-09-08T02:27:04.619Z,20.44
2023-09-08T02:29:33.791Z,20.41
2023-09-08T02:32:05.053Z,20.34
2023-09-08T02:34:37.662Z,20.33
2023-09-08T02:37:08.360Z,20.29
2023-09-08T02:39:36.987Z,20.34
2023-09-08T02:42:10.263Z,20.30
2023-09-08T02:44:40.357Z,20.28
2023-09-08T02:47:11.341Z,20.18
2023-09-08T02:49:41.183Z,20.14
2023-09-08T02:52:09.479Z,20.15
2023-09-08T02:54:37.681Z,20.07
2023-09-08T02:57:08.159Z,20.10
2023-09-08T02:59:38.813Z,20.09
2023-09-08T03:02:07.257Z,20.16
2023-09-08T03:04:37.310Z,20.10
2023-09-08T03:07:08.085Z,20.10
2023-09-08T03:09:38.965Z,20.04
2023-09-08T03:12:11.303Z,19.99
2023-09-08T03:14:43.716Z,20.00
2023-09-08T03:17:12.031Z,20.01
2023-09-08T03:19:41.741Z,20.05
2023-09-08T03:22:12.495Z,20.00
2023-09-08T03:24:40.769Z,19.98
2023-09-08T03:27:09.698Z,19.89
2023-09-08T03:29:38.329Z,19.83
2023-09-08T03:32:07.776Z,19.83
2023-09-08T03:34:41.025Z,19.83
2023-09-08T03:37:16.232Z,19.72
2023-09-08T03:39:47.584Z,19.56
2023-09-08T03:42:15.835Z,19.68
2023-09-08T03:44:44.038Z,19.66
2023-09-08T03:47:12.372Z,19.65
2023-09-08T03:49:40.652Z,19.66
2023-09-08T03:52:09.211Z,19.63
2023-09-08T03:54:39.249Z,19.57
2023-09-08T03:57:07.505Z,19.52
2023-09-08T03:59:37.476Z,19.44
2023-09-08T04:02:05.999Z,19.42
2023-09-08T04:04:34.306Z,19.44
2023-09-08T04:07:06.952Z,19.36
2023-09-08T04:09:36.289Z,19.47
2023-09-08T04:12:06.802Z,19.41
2023-09-08T04:14:37.486Z,19.36
2023-09-08T04:17:06.036Z,19.32
2023-09-08T04:19:35.057Z,19.23
2023-09-08T04:22:03.422Z,19.25
2023-09-08T04:24:31.966Z,19.25
2023-09-08T04:27:00.413Z,19.18
2023-09-08T04:29:31.071Z,19.18
2023-09-08T04:31:59.316Z,19.23
2023-09-08T04:34:27.631Z,19.28
2023-09-08T04:36:56.144Z,19.26
2023-09-08T04:39:24.460Z,19.14
2023-09-08T04:41:53.384Z,19.16
2023-09-08T04:44:23.538Z,19.13
2023-09-08T04:46:54.676Z,18.99
2023-09-08T04:49:23.224Z,19.07
2023-09-08T04:51:51.515Z,19.18
2023-09-08T04:54:22.376Z,19.08
2023-09-08T04:56:52.071Z,19.08
2023-09-08T04:59:20.504Z,18.99
2023-09-08T05:01:49.277Z,19.01
2023-09-08T05:04:19.344Z,19.00
2023-09-08T05:06:48.380Z,19.05
2023-09-08T05:09:19.470Z,18.99
2023-09-08T05:11:48.072Z,18.92
2023-09-08T05:14:16.519Z,18.96
2023-09-08T05:16:47.821Z,18.95
2023-09-08T05:19:21.836Z,18.96
2023-09-08T05:21:52.069Z,18.92
2023-09-08T05:24:23.167Z,18.87
2023-09-08T05:26:54.027Z,18.94
2023-09-08T05:29:22.842Z,18.98
2023-09-08T05:31:52.903Z,18.96
2023-09-08T05:34:22.816Z,19.07
2023-09-08T05:36:51.428Z,19.13
2023-09-08T05:39:20.409Z,19.14
2023-09-08T05:41:49.344Z,19.13
2023-09-08T05:44:17.655Z,19.27
2023-09-08T05:46:47.294Z,19.23
2023-09-08T05:49:16.216Z,19.32
2023-09-08T05:51:48.087Z,19.31
2023-09-08T05:54:18.614Z,19.40
2023-09-08T05:56:47.230Z,19.51
2023-09-08T05:59:16.286Z,19.50
2023-09-08T06:01:44.980Z,19.55
2023-09-08T06:04:14.361Z,19.65
2023-09-08T06:06:42.964Z,19.70
2023-09-08T06:09:13.515Z,19.69
2023-09-08T06:11:45.043Z,19.65
2023-09-08T06:14:13.590Z,19.74
2023-09-08T06:16:44.966Z,19.89
2023-09-08T06:19:14.800Z,19.94
2023-09-08T06:21:43.687Z,19.99
2023-09-08T06:24:15.637Z,19.94
2023-09-08T06:26:47.153Z,20.13
2023-09-08T06:29:15.684Z,20.20
2023-09-08T06:31:43.910Z,20.31
2023-09-08T06:34:12.318Z,20.32
2023-09-08T06:36:43.691Z,20.36
2023-09-08T06:39:18.969Z,20.43
2023-09-08T06:41:47.308Z,20.53
2023-09-08T06:44:21.427Z,20.64
2023-09-08T06:46:49.745Z,20.66
2023-09-08T06:49:18.226Z,20.76
2023-09-08T06:51:48.707Z,20.75
2023-09-08T06:54:19.466Z,20.89
2023-09-08T06:56:48.299Z,20.98
2023-09-08T06:59:17.399Z,20.98
2023-09-08T07:01:46.026Z,21.18
2023-09-08T07:04:15.791Z,21.24
2023-09-08T07:06:46.177Z,21.27
2023-09-08T07:09:15.288Z,21.36
2023-09-08T07:11:47.764Z,21.42
2023-09-08T07:14:16.127Z,21.32
2023-09-08T07:16:46.176Z,21.44
2023-09-08T07:19:14.715Z,21.44
2023-09-08T07:21:45.363Z,21.46
2023-09-08T07:24:14.496Z,21.68
2023-09-08T07:26:43.347Z,21.87
2023-09-08T07:29:13.140Z,21.94
2023-09-08T07:31:41.995Z,21.97
2023-09-08T07:34:10.601Z,22.11
2023-09-08T07:36:39.022Z,22.19
2023-09-08T07:39:07.426Z,22.24
2023-09-08T07:41:35.844Z,22.25
2023-09-08T07:44:04.147Z,22.38
2023-09-08T07:46:33.924Z,22.37
2023-09-08T07:49:02.565Z,22.47
2023-09-08T07:51:33.164Z,22.52
2023-09-08T07:54:03.034Z,22.67
2023-09-08T07:56:31.329Z,22.78
2023-09-08T07:58:59.548Z,22.64
2023-09-08T08:01:27.954Z,22.73
2023-09-08T08:03:59.787Z,22.91
2023-09-08T08:06:29.627Z,22.79
2023-09-08T08:08:59.648Z,22.92
2023-09-08T08:11:29.579Z,23.06
2023-09-08T08:14:04.160Z,23.25
2023-09-08T08:16:32.541Z,23.28
2023-09-08T08:19:02.186Z,23.45
2023-09-08T08:21:31.251Z,23.28
2023-09-08T08:23:59.592Z,23.39
2023-09-08T08:26:30.939Z,23.38
2023-09-08T08:29:01.393Z,23.68
2023-09-08T08:31:29.931Z,23.91
2023-09-08T08:33:58.220Z,23.86
2023-09-08T08:36:28.213Z,23.92
2023-09-08T08:38:58.409Z,24.10
2023-09-08T08:41:26.937Z,24.48
2023-09-08T08:43:56.192Z,24.15
2023-09-08T08:46:25.260Z,24.16
2023-09-08T08:48:56.547Z,24.41
2023-09-08T08:51:30.458Z,24.62
2023-09-08T08:53:58.931Z,24.48
2023-09-08T08:56:29.613Z,24.77
2023-09-08T08:59:04.277Z,24.78
2023-09-08T09:01:33.825Z,24.79
2023-09-08T09:04:02.386Z,25.14
2023-09-08T09:06:32.394Z,25.39
2023-09-08T09:09:02.130Z,25.43
2023-09-08T09:11:31.848Z,25.44
2023-09-08T09:14:00.243Z,25.51
2023-09-08T09:16:30.030Z,25.53
2023-09-08T09:19:01.651Z,25.66
2023-09-08T09:21:47.259Z,25.60
2023-09-08T09:24:21.161Z,25.72
2023-09-08T09:26:56.015Z,25.65
2023-09-08T09:29:24.558Z,25.93
2023-09-08T09:31:54.785Z,25.67
2023-09-08T09:34:23.518Z,25.64
2023-09-08T09:36:53.955Z,25.90
2023-09-08T09:39:23.536Z,26.07
2023-09-08T09:41:55.020Z,26.20
2023-09-08T09:44:24.309Z,26.22
2023-09-08T09:46:54.656Z,26.32
2023-09-08T09:49:24.888Z,26.37
2023-09-08T09:51:56.619Z,26.19
2023-09-08T09:54:24.855Z,26.54
2023-09-08T09:56:54.418Z,26.67
2023-09-08T09:59:24.610Z,26.47
2023-09-08T10:01:54.357Z,26.70
2023-09-08T10:04:23.177Z,26.82
2023-09-08T10:06:56.181Z,27.07
2023-09-08T10:09:26.301Z,27.32
2023-09-08T10:11:57.661Z,27.61
2023-09-08T10:14:27.373Z,27.41
2023-09-08T10:17:01.061Z,27.34
2023-09-08T10:19:31.689Z,27.57
2023-09-08T10:22:04.668Z,27.52
2023-09-08T10:24:36.925Z,27.29
2023-09-08T10:27:09.993Z,27.81
2023-09-08T10:29:38.804Z,27.50
2023-09-08T10:32:10.949Z,27.43
2023-09-08T10:34:42.552Z,27.57
2023-09-08T10:37:29.046Z,27.79
2023-09-08T10:40:18.959Z,27.75
2023-09-08T10:42:48.799Z,28.32
2023-09-08T10:45:18.810Z,28.46
2023-09-08T10:48:02.167Z,28.54
2023-09-08T10:50:37.867Z,28.53
2023-09-08T10:53:15.483Z,28.64
2023-09-08T10:55:56.808Z,28.78
2023-09-08T10:58:35.147Z,28.46
2023-09-08T11:01:06.737Z,28.78
2023-09-08T11:03:50.943Z,28.67
2023-09-08T11:06:20.340Z,28.38
2023-09-08T11:08:54.067Z,28.30
2023-09-08T11:11:24.984Z,28.69
2023-09-08T11:13:53.311Z,29.09
2023-09-08T11:16:24.485Z,29.06
2023-09-08T11:18:53.947Z,28.89
2023-09-08T11:21:24.915Z,29.04
2023-09-08T11:23:53.246Z,29.54
2023-09-08T11:26:23.902Z,29.64
2023-09-08T11:28:54.753Z,29.47
2023-09-08T11:31:23.081Z,29.45
2023-09-08T11:33:52.962Z,29.52
2023-09-08T11:36:21.279Z,29.41
2023-09-08T11:38:49.480Z,29.52
2023-09-08T11:41:18.674Z,29.65
2023-09-08T11:43:48.909Z,30.07
2023-09-08T11:46:19.267Z,29.83
2023-09-08T11:48:48.762Z,29.73
2023-09-08T11:51:19.646Z,29.45
2023-09-08T11:53:48.019Z,29.57
2023-09-08T11:56:16.294Z,29.67
2023-09-08T11:58:46.403Z,29.82
2023-09-08T12:01:16.992Z,29.52
2023-09-08T12:03:54.172Z,29.63
2023-09-08T12:06:25.719Z,30.00
2023-09-08T12:08:54.072Z,30.01
2023-09-08T12:11:23.953Z,30.63
2023-09-08T12:13:54.117Z,30.41
2023-09-08T12:16:24.269Z,30.09
2023-09-08T12:18:52.918Z,30.39
2023-09-08T12:21:23.353Z,30.13
2023-09-08T12:23:52.389Z,30.24
2023-09-08T12:26:20.673Z,30.27
2023-09-08T12:28:49.532Z,30.12
2023-09-08T12:31:19.362Z,30.33
2023-09-08T12:33:49.049Z,30.47
2023-09-08T12:36:20.721Z,30.61
2023-09-08T12:38:56.424Z,30.70
2023-09-08T12:41:24.733Z,30.40
2023-09-08T12:43:52.938Z,30.53
2023-09-08T12:46:23.253Z,30.61
2023-09-08T12:48:53.268Z,30.89
2023-09-08T12:51:21.591Z,30.92
2023-09-08T12:53:50.823Z,30.94
2023-09-08T12:56:19.550Z,31.30
2023-09-08T12:58:48.187Z,31.52
2023-09-08T13:01:16.484Z,31.51
2023-09-08T13:03:45.058Z,31.35
2023-09-08T13:06:16.868Z,31.01
2023-09-08T13:08:47.385Z,31.24
2023-09-08T13:11:15.663Z,31.22
2023-09-08T13:13:45.691Z,31.28
2023-09-08T13:16:15.433Z,30.92
2023-09-08T13:18:46.144Z,30.96
2023-09-08T13:21:18.168Z,30.82
2023-09-08T13:23:46.466Z,31.31
2023-09-08T13:26:14.716Z,31.57
2023-09-08T13:28:43.030Z,31.13
2023-09-08T13:31:11.813Z,31.54
2023-09-08T13:33:40.405Z,31.31
2023-09-08T13:36:08.909Z,31.61
2023-09-08T13:38:39.114Z,32.05
2023-09-08T13:41:07.930Z,31.73
2023-09-08T13:43:36.197Z,32.18
2023-09-08T13:46:04.653Z,31.78
2023-09-08T13:48:35.967Z,31.58
2023-09-08T13:51:06.658Z,31.73
2023-09-08T13:53:43.195Z,31.69
2023-09-08T13:56:20.319Z,31.92
2023-09-08T13:58:52.252Z,31.80
2023-09-08T14:01:27.188Z,32.29
2023-09-08T14:04:03.528Z,32.23
2023-09-08T14:14:10.812Z,31.87
2023-09-08T14:16:39.927Z,32.05
2023-09-08T14:19:08.214Z,32.09
2023-09-08T14:21:38.306Z,32.12
2023-09-08T14:24:07.125Z,32.17
2023-09-08T14:26:36.124Z,31.88
2023-09-08T14:29:08.502Z,31.88
2023-09-08T14:31:37.077Z,31.81
2023-09-08T14:34:05.899Z,31.98
2023-09-08T14:36:36.616Z,32.03
2023-09-08T14:39:05.057Z,32.13
2023-09-08T14:41:35.244Z,31.65
2023-09-08T14:44:05.087Z,31.50
2023-09-08T14:46:33.658Z,31.28
2023-09-08T14:49:01.894Z,31.49
2023-09-08T14:51:30.345Z,31.58
2023-09-08T14:53:58.657Z,31.98
2023-09-08T14:56:26.990Z,32.25
2023-09-08T14:58:55.153Z,32.15
2023-09-08T15:01:25.005Z,32.07
2023-09-08T15:03:53.442Z,32.13
2023-09-08T15:06:25.271Z,32.16
2023-09-08T15:08:54.867Z,32.11
2023-09-08T15:11:23.231Z,32.07
2023-09-08T15:13:51.534Z,31.97
2023-09-08T15:16:21.532Z,31.78
2023-09-08T15:18:52.141Z,31.57
2023-09-08T15:21:26.783Z,31.64
2023-09-08T15:23:55.162Z,31.65
2023-09-08T15:26:23.597Z,31.96
2023-09-08T15:28:53.617Z,31.59
2023-09-08T15:31:24.719Z,31.99
2023-09-08T15:33:54.601Z,31.64
2023-09-08T15:36:26.792Z,31.85
2023-09-08T15:38:55.095Z,31.54
2023-09-08T15:41:23.320Z,31.39
2023-09-08T15:43:53.322Z,31.18
2023-09-08T15:46:22.317Z,30.44
2023-09-08T15:48:50.606Z,29.68
2023-09-08T15:51:20.290Z,29.54
2023-09-08T15:53:48.674Z,29.51
2023-09-08T15:56:17.000Z,29.47
2023-09-08T15:58:45.475Z,29.28
2023-09-08T16:01:15.095Z,28.94
2023-09-08T16:03:47.165Z,28.91
2023-09-08T16:06:15.651Z,28.76
2023-09-08T16:08:45.304Z,28.86
2023-09-08T16:11:13.898Z,28.77
2023-09-08T16:13:44.268Z,28.80
2023-09-08T16:16:12.541Z,28.82
2023-09-08T16:18:42.399Z,28.64
2023-09-08T16:21:10.890Z,28.69
2023-09-08T16:23:39.408Z,28.69
2023-09-08T16:26:09.465Z,28.41
2023-09-08T16:28:37.760Z,28.26
2023-09-08T16:31:06.764Z,28.38
2023-09-08T16:33:35.694Z,28.00
2023-09-08T16:36:04.615Z,28.34
2023-09-08T16:38:34.072Z,28.53
2023-09-08T16:41:02.424Z,28.04
2023-09-08T16:43:32.041Z,28.40
2023-09-08T16:46:00.595Z,28.40
2023-09-08T16:48:28.982Z,28.12
2023-09-08T16:50:59.387Z,28.00
2023-09-08T16:53:27.636Z,27.95
2023-09-08T16:55:55.940Z,27.50
2023-09-08T16:58:25.072Z,27.57
2023-09-08T17:00:56.128Z,27.49
2023-09-08T17:03:24.504Z,27.30
2023-09-08T17:05:52.978Z,27.01
2023-09-08T17:08:23.591Z,26.85
2023-09-08T17:10:51.908Z,26.79
2023-09-08T17:13:20.156Z,26.70
2023-09-08T17:15:48.528Z,26.68
2023-09-08T17:18:19.681Z,26.32
2023-09-08T17:20:49.580Z,26.41
2023-09-08T17:23:19.120Z,26.30
2023-09-08T17:25:50.047Z,26.34
2023-09-08T17:28:19.285Z,26.12
2023-09-08T17:30:48.670Z,26.19
2023-09-08T17:33:20.222Z,25.97
2023-09-08T17:35:51.132Z,25.74
2023-09-08T17:38:19.731Z,25.77
2023-09-08T17:40:49.182Z,25.52
2023-09-08T17:43:17.523Z,25.56
2023-09-08T17:45:48.851Z,25.53
2023-09-08T17:48:18.599Z,25.39
2023-09-08T17:50:49.138Z,25.22
2023-09-08T17:53:17.407Z,25.07
2023-09-08T17:55:45.657Z,24.89
2023-09-08T17:58:16.872Z,24.80
2023-09-08T18:00:47.362Z,24.75
2023-09-08T18:03:19.769Z,24.75
2023-09-08T18:05:51.143Z,24.68
2023-09-08T18:08:19.430Z,24.69
2023-09-08T18:10:48.119Z,24.50
2023-09-08T18:13:16.434Z,24.46
2023-09-08T18:15:44.725Z,24.28
2023-09-08T18:18:13.190Z,24.18
2023-09-08T18:20:41.516Z,24.12
2023-09-08T18:23:11.199Z,24.21
2023-09-08T18:25:39.490Z,24.24
2023-09-08T18:28:08.899Z,24.26
2023-09-08T18:30:37.250Z,24.03
2023-09-08T18:33:05.754Z,23.92
2023-09-08T18:35:35.164Z,23.96
2023-09-08T18:38:03.744Z,23.80
2023-09-08T18:40:33.502Z,23.80
2023-09-08T18:43:01.827Z,23.71
2023-09-08T18:45:30.238Z,23.57
2023-09-08T18:47:58.552Z,23.54
2023-09-08T18:50:26.981Z,23.41
2023-09-08T18:52:55.890Z,23.35
2023-09-08T18:55:25.178Z,23.22
2023-09-08T18:57:55.162Z,23.14
2023-09-08T19:00:23.892Z,23.03
2023-09-08T19:02:52.328Z,23.08
2023-09-08T19:05:20.836Z,22.97
2023-09-08T19:07:49.239Z,22.97
2023-09-08T19:10:18.468Z,23.02
2023-09-08T19:12:46.675Z,22.98
2023-09-08T19:15:17.262Z,23.20
2023-09-08T19:17:46.728Z,23.17
2023-09-08T19:20:15.138Z,23.02
2023-09-08T19:22:43.594Z,22.93
2023-09-08T19:25:11.923Z,22.80
2023-09-08T19:27:40.353Z,22.71
2023-09-08T19:30:13.926Z,22.58
2023-09-08T19:32:43.566Z,22.61
2023-09-08T19:35:12.432Z,22.57
2023-09-08T19:37:40.799Z,22.39
2023-09-08T19:40:11.313Z,22.41
2023-09-08T19:42:40.041Z,22.41
2023-09-08T19:45:08.981Z,22.35
2023-09-08T19:47:39.254Z,22.36
2023-09-08T19:50:13.030Z,22.44
2023-09-08T19:52:41.769Z,22.41
2023-09-08T19:55:10.930Z,22.25
2023-09-08T19:57:39.230Z,22.08
2023-09-08T20:00:09.276Z,22.14
2023-09-08T20:02:44.577Z,22.21
2023-09-08T20:05:14.352Z,22.14
2023-09-08T20:07:44.231Z,22.11
2023-09-08T20:10:13.263Z,22.04
2023-09-08T20:12:42.654Z,22.03
2023-09-08T20:15:13.809Z,22.13
2023-09-08T20:17:44.000Z,22.14
2023-09-08T20:20:14.415Z,22.05
2023-09-08T20:22:42.690Z,21.85
2023-09-08T20:25:11.235Z,21.75
2023-09-08T20:27:39.521Z,21.73
2023-09-08T20:30:08.918Z,21.79
2023-09-08T20:32:37.211Z,21.73
2023-09-08T20:35:05.987Z,21.72
2023-09-08T20:37:35.790Z,21.63
2023-09-08T20:40:04.768Z,21.63
2023-09-08T20:42:33.025Z,21.62
2023-09-08T20:45:01.704Z,21.58
2023-09-08T20:47:30.473Z,21.58
2023-09-08T20:50:00.930Z,21.53
2023-09-08T20:52:29.429Z,21.51
2023-09-08T20:55:00.469Z,21.57
2023-09-08T20:57:29.240Z,21.38
2023-09-08T20:59:57.458Z,21.37
2023-09-08T21:02:25.711Z,21.36
2023-09-08T21:04:54.016Z,21.13
2023-09-08T21:07:22.281Z,21.22
2023-09-08T21:09:52.344Z,21.24
2023-09-08T21:12:22.055Z,21.11
2023-09-08T21:14:50.349Z,21.13
2023-09-08T21:17:18.560Z,21.08
2023-09-08T21:19:47.136Z,21.08
2023-09-08T21:22:15.405Z,21.00
2023-09-08T21:24:43.677Z,20.98
2023-09-08T21:27:12.151Z,20.91
2023-09-08T21:29:42.824Z,20.89
2023-09-08T21:32:11.134Z,20.90
2023-09-08T21:34:41.261Z,20.89
2023-09-08T21:37:10.374Z,20.81
2023-09-08T21:39:38.721Z,20.76
2023-09-08T21:42:08.702Z,20.74
2023-09-08T21:44:37.081Z,20.65
2023-09-08T21:47:09.472Z,20.62
2023-09-08T21:49:37.911Z,20.70
2023-09-08T21:52:07.758Z,20.63
2023-09-08T21:54:36.131Z,20.46
2023-09-08T21:57:04.575Z,20.61
2023-09-08T21:59:32.901Z,20.47
2023-09-08T22:02:06.630Z,20.43
2023-09-08T22:04:38.995Z,20.45
2023-09-08T22:07:07.610Z,20.47
2023-09-08T22:09:35.836Z,20.32
2023-09-08T22:12:09.411Z,20.43
2023-09-08T22:14:39.219Z,20.32
2023-09-08T22:17:07.530Z,20.22
2023-09-08T22:19:37.696Z,20.30
2023-09-08T22:22:08.981Z,20.36
2023-09-08T22:24:37.347Z,20.25
2023-09-08T22:27:06.023Z,20.17
2023-09-08T22:29:34.340Z,20.28
2023-09-08T22:32:02.528Z,20.20
2023-09-08T22:34:31.296Z,20.10
2023-09-08T22:37:00.961Z,20.16
2023-09-08T22:39:31.177Z,20.25
2023-09-08T22:42:01.687Z,20.05
2023-09-08T22:44:31.523Z,19.96
2023-09-08T22:46:59.795Z,19.84
2023-09-08T22:49:28.483Z,19.87
2023-09-08T22:51:56.712Z,19.88
2023-09-08T22:54:26.531Z,20.14
2023-09-08T22:56:55.117Z,19.84
2023-09-08T22:59:25.022Z,19.84
2023-09-08T23:01:53.288Z,19.88
2023-09-08T23:04:21.695Z,19.88
2023-09-08T23:06:51.903Z,19.89
2023-09-08T23:09:20.367Z,19.85
2023-09-08T23:11:49.956Z,19.71
2023-09-08T23:14:18.219Z,19.62
2023-09-08T23:16:46.764Z,19.85
2023-09-08T23:19:15.096Z,19.75
2023-09-08T23:21:45.723Z,19.72
2023-09-08T23:24:15.774Z,19.68
2023-09-08T23:26:44.051Z,19.66
2023-09-08T23:29:14.376Z,19.57
2023-09-08T23:31:42.705Z,19.60
2023-09-08T23:34:14.816Z,19.63
2023-09-08T23:36:43.271Z,19.56
2023-09-08T23:39:11.869Z,19.43
2023-09-08T23:41:44.058Z,19.46
2023-09-08T23:44:17.723Z,19.42
2023-09-08T23:46:48.039Z,19.56
2023-09-08T23:49:16.287Z,19.43
2023-09-08T23:51:46.613Z,19.45
2023-09-08T23:54:17.392Z,19.31
2023-09-08T23:56:45.701Z,19.35
2023-09-08T23:59:15.368Z,19.32
